sensor_id;sensor_type;location;lat;lon;timestamp;temperature;humidity
30475;DHT22;17264;53.340;9.888;2022-07-06T00:01:34;13.80;99.90
30475;DHT22;17264;53.340;9.888;2022-07-06T00:04:01;13.80;99.90
30475;DHT22;17264;53.340;9.888;2022-07-06T00:06:28;13.80;99.90
30475;DHT22;17264;53.340;9.888;2022-07-06T00:08:53;13.80;99.90
30475;DHT22;17264;53.340;9.888;2022-07-06T00:11:19;13.80;99.90
30475;DHT22;17264;53.340;9.888;2022-07-06T00:13:45;13.80;99.90
30475;DHT22;17264;53.340;9.888;2022-07-06T00:16:11;13.80;99.90
30475;DHT22;17264;53.340;9.888;2022-07-06T00:18:37;13.80;99.90
30475;DHT22;17264;53.340;9.888;2022-07-06T00:21:02;13.80;99.90
30475;DHT22;17264;53.340;9.888;2022-07-06T00:23:28;13.80;99.90
30475;DHT22;17264;53.340;9.888;2022-07-06T00:25:54;13.80;99.90
30475;DHT22;17264;53.340;9.888;2022-07-06T00:28:20;13.90;99.90
30475;DHT22;17264;53.340;9.888;2022-07-06T00:30:45;13.90;99.90
30475;DHT22;17264;53.340;9.888;2022-07-06T00:33:11;13.80;99.90
30475;DHT22;17264;53.340;9.888;2022-07-06T00:35:37;13.80;99.90
30475;DHT22;17264;53.340;9.888;2022-07-06T00:38:03;13.80;99.90
30475;DHT22;17264;53.340;9.888;2022-07-06T00:40:29;13.80;99.90
30475;DHT22;17264;53.340;9.888;2022-07-06T00:42:55;13.80;99.90
30475;DHT22;17264;53.340;9.888;2022-07-06T00:45:21;13.80;99.90
30475;DHT22;17264;53.340;9.888;2022-07-06T00:47:47;13.80;99.90
30475;DHT22;17264;53.340;9.888;2022-07-06T00:50:16;13.80;99.90
30475;DHT22;17264;53.340;9.888;2022-07-06T00:53:01;13.80;99.90
30475;DHT22;17264;53.340;9.888;2022-07-06T00:55:29;13.80;99.90
30475;DHT22;17264;53.340;9.888;2022-07-06T00:57:55;13.70;99.90
30475;DHT22;17264;53.340;9.888;2022-07-06T01:00:26;13.70;99.90
30475;DHT22;17264;53.340;9.888;2022-07-06T01:02:53;13.70;99.90
30475;DHT22;17264;53.340;9.888;2022-07-06T01:05:19;13.70;99.90
30475;DHT22;17264;53.340;9.888;2022-07-06T01:07:47;13.70;99.90
30475;DHT22;17264;53.340;9.888;2022-07-06T01:10:14;13.70;99.90
30475;DHT22;17264;53.340;9.888;2022-07-06T01:12:43;13.70;99.90
30475;DHT22;17264;53.340;9.888;2022-07-06T01:15:14;13.70;99.90
30475;DHT22;17264;53.340;9.888;2022-07-06T01:17:40;13.80;99.90
30475;DHT22;17264;53.340;9.888;2022-07-06T01:22:35;13.70;99.90
30475;DHT22;17264;53.340;9.888;2022-07-06T01:25:01;13.70;99.90
30475;DHT22;17264;53.340;9.888;2022-07-06T01:27:26;13.70;99.90
30475;DHT22;17264;53.340;9.888;2022-07-06T01:29:52;13.70;99.90
30475;DHT22;17264;53.340;9.888;2022-07-06T01:32:18;13.70;99.90
30475;DHT22;17264;53.340;9.888;2022-07-06T01:34:43;13.70;99.90
30475;DHT22;17264;53.340;9.888;2022-07-06T01:37:09;13.80;99.90
30475;DHT22;17264;53.340;9.888;2022-07-06T01:39:35;13.70;99.90
30475;DHT22;17264;53.340;9.888;2022-07-06T01:42:01;13.70;99.90
30475;DHT22;17264;53.340;9.888;2022-07-06T01:44:26;13.70;99.90
30475;DHT22;17264;53.340;9.888;2022-07-06T01:46:52;13.70;99.90
30475;DHT22;17264;53.340;9.888;2022-07-06T01:49:18;13.70;99.90
30475;DHT22;17264;53.340;9.888;2022-07-06T01:51:43;13.70;99.90
30475;DHT22;17264;53.340;9.888;2022-07-06T01:54:09;13.70;99.90
30475;DHT22;17264;53.340;9.888;2022-07-06T01:56:35;13.70;99.90
30475;DHT22;17264;53.340;9.888;2022-07-06T01:59:00;13.60;99.90
30475;DHT22;17264;53.340;9.888;2022-07-06T02:01:26;13.60;99.90
30475;DHT22;17264;53.340;9.888;2022-07-06T02:03:52;13.60;99.90
30475;DHT22;17264;53.340;9.888;2022-07-06T02:06:18;13.70;99.90
30475;DHT22;17264;53.340;9.888;2022-07-06T02:08:43;13.60;99.90
30475;DHT22;17264;53.340;9.888;2022-07-06T02:11:10;13.60;99.90
30475;DHT22;17264;53.340;9.888;2022-07-06T02:13:36;13.60;99.90
30475;DHT22;17264;53.340;9.888;2022-07-06T02:16:02;13.60;99.90
30475;DHT22;17264;53.340;9.888;2022-07-06T02:18:28;13.60;99.90
30475;DHT22;17264;53.340;9.888;2022-07-06T02:20:54;13.70;99.90
30475;DHT22;17264;53.340;9.888;2022-07-06T02:23:20;13.70;99.90
30475;DHT22;17264;53.340;9.888;2022-07-06T02:25:46;13.70;99.90
30475;DHT22;17264;53.340;9.888;2022-07-06T02:28:12;13.70;99.90
30475;DHT22;17264;53.340;9.888;2022-07-06T02:30:37;13.60;99.90
30475;DHT22;17264;53.340;9.888;2022-07-06T02:33:03;13.60;99.90
30475;DHT22;17264;53.340;9.888;2022-07-06T02:35:29;13.60;99.90
30475;DHT22;17264;53.340;9.888;2022-07-06T02:37:55;13.60;99.90
30475;DHT22;17264;53.340;9.888;2022-07-06T02:40:20;13.60;99.90
30475;DHT22;17264;53.340;9.888;2022-07-06T02:42:46;13.60;99.90
30475;DHT22;17264;53.340;9.888;2022-07-06T02:45:12;13.50;99.90
30475;DHT22;17264;53.340;9.888;2022-07-06T02:47:37;13.50;99.90
30475;DHT22;17264;53.340;9.888;2022-07-06T02:50:04;13.60;99.90
30475;DHT22;17264;53.340;9.888;2022-07-06T02:52:30;13.50;99.90
30475;DHT22;17264;53.340;9.888;2022-07-06T02:54:56;13.50;99.90
30475;DHT22;17264;53.340;9.888;2022-07-06T02:57:22;13.50;99.90
30475;DHT22;17264;53.340;9.888;2022-07-06T02:59:48;13.50;99.90
30475;DHT22;17264;53.340;9.888;2022-07-06T03:02:18;13.50;99.90
30475;DHT22;17264;53.340;9.888;2022-07-06T03:04:44;13.50;99.90
30475;DHT22;17264;53.340;9.888;2022-07-06T03:07:10;13.50;99.90
30475;DHT22;17264;53.340;9.888;2022-07-06T03:09:35;13.50;99.90
30475;DHT22;17264;53.340;9.888;2022-07-06T03:12:01;13.50;99.90
30475;DHT22;17264;53.340;9.888;2022-07-06T03:14:27;13.40;99.90
30475;DHT22;17264;53.340;9.888;2022-07-06T03:16:53;13.40;99.90
30475;DHT22;17264;53.340;9.888;2022-07-06T03:19:19;13.40;99.90
30475;DHT22;17264;53.340;9.888;2022-07-06T03:21:46;13.40;99.90
30475;DHT22;17264;53.340;9.888;2022-07-06T03:24:12;13.50;99.90
30475;DHT22;17264;53.340;9.888;2022-07-06T03:26:37;13.50;99.90
30475;DHT22;17264;53.340;9.888;2022-07-06T03:29:03;13.50;99.90
30475;DHT22;17264;53.340;9.888;2022-07-06T03:31:29;13.40;99.90
30475;DHT22;17264;53.340;9.888;2022-07-06T03:33:55;13.40;99.90
30475;DHT22;17264;53.340;9.888;2022-07-06T03:36:20;13.40;99.90
30475;DHT22;17264;53.340;9.888;2022-07-06T03:38:46;13.50;99.90
30475;DHT22;17264;53.340;9.888;2022-07-06T03:41:12;13.50;99.90
30475;DHT22;17264;53.340;9.888;2022-07-06T03:43:38;13.50;99.90
30475;DHT22;17264;53.340;9.888;2022-07-06T03:46:03;13.60;99.90
30475;DHT22;17264;53.340;9.888;2022-07-06T03:48:29;13.60;99.90
30475;DHT22;17264;53.340;9.888;2022-07-06T03:50:55;13.60;99.90
30475;DHT22;17264;53.340;9.888;2022-07-06T03:53:21;13.60;99.90
30475;DHT22;17264;53.340;9.888;2022-07-06T03:55:47;13.70;99.90
30475;DHT22;17264;53.340;9.888;2022-07-06T03:58:33;13.70;99.90
30475;DHT22;17264;53.340;9.888;2022-07-06T04:00:59;13.70;99.90
30475;DHT22;17264;53.340;9.888;2022-07-06T04:03:25;13.70;99.90
30475;DHT22;17264;53.340;9.888;2022-07-06T04:05:51;13.70;99.90
30475;DHT22;17264;53.340;9.888;2022-07-06T04:08:16;13.80;99.90
30475;DHT22;17264;53.340;9.888;2022-07-06T04:10:42;13.90;99.90
30475;DHT22;17264;53.340;9.888;2022-07-06T04:13:08;13.90;99.90
30475;DHT22;17264;53.340;9.888;2022-07-06T04:15:33;13.90;99.90
30475;DHT22;17264;53.340;9.888;2022-07-06T04:17:59;14.00;99.90
30475;DHT22;17264;53.340;9.888;2022-07-06T04:20:25;14.00;99.90
30475;DHT22;17264;53.340;9.888;2022-07-06T04:22:51;14.00;99.90
30475;DHT22;17264;53.340;9.888;2022-07-06T04:25:18;14.10;99.90
30475;DHT22;17264;53.340;9.888;2022-07-06T04:27:44;14.10;99.90
30475;DHT22;17264;53.340;9.888;2022-07-06T04:30:10;14.10;99.90
30475;DHT22;17264;53.340;9.888;2022-07-06T04:32:36;14.10;99.90
30475;DHT22;17264;53.340;9.888;2022-07-06T04:35:03;14.10;99.90
30475;DHT22;17264;53.340;9.888;2022-07-06T04:37:29;14.10;99.90
30475;DHT22;17264;53.340;9.888;2022-07-06T04:39:56;14.20;99.90
30475;DHT22;17264;53.340;9.888;2022-07-06T04:42:21;14.20;99.90
30475;DHT22;17264;53.340;9.888;2022-07-06T04:44:47;14.20;99.90
30475;DHT22;17264;53.340;9.888;2022-07-06T04:47:13;14.20;99.90
30475;DHT22;17264;53.340;9.888;2022-07-06T04:49:39;14.30;99.90
30475;DHT22;17264;53.340;9.888;2022-07-06T04:52:05;14.30;99.90
30475;DHT22;17264;53.340;9.888;2022-07-06T04:54:32;14.30;99.90
30475;DHT22;17264;53.340;9.888;2022-07-06T04:56:58;14.30;99.90
30475;DHT22;17264;53.340;9.888;2022-07-06T04:59:23;14.30;99.90
30475;DHT22;17264;53.340;9.888;2022-07-06T05:01:49;14.40;99.90
30475;DHT22;17264;53.340;9.888;2022-07-06T05:04:15;14.40;99.90
30475;DHT22;17264;53.340;9.888;2022-07-06T05:06:44;14.40;99.90
30475;DHT22;17264;53.340;9.888;2022-07-06T05:09:10;14.50;99.90
30475;DHT22;17264;53.340;9.888;2022-07-06T05:11:36;14.50;99.90
30475;DHT22;17264;53.340;9.888;2022-07-06T05:14:03;14.60;99.90
30475;DHT22;17264;53.340;9.888;2022-07-06T05:16:29;14.60;99.90
30475;DHT22;17264;53.340;9.888;2022-07-06T05:18:54;14.70;99.90
30475;DHT22;17264;53.340;9.888;2022-07-06T05:21:20;14.70;99.90
30475;DHT22;17264;53.340;9.888;2022-07-06T05:23:46;14.70;99.90
30475;DHT22;17264;53.340;9.888;2022-07-06T05:26:11;14.70;99.90
30475;DHT22;17264;53.340;9.888;2022-07-06T05:28:37;14.80;99.90
30475;DHT22;17264;53.340;9.888;2022-07-06T05:31:03;14.90;99.90
30475;DHT22;17264;53.340;9.888;2022-07-06T05:33:29;15.00;99.90
30475;DHT22;17264;53.340;9.888;2022-07-06T05:35:55;15.00;99.90
30475;DHT22;17264;53.340;9.888;2022-07-06T05:38:21;15.00;99.90
30475;DHT22;17264;53.340;9.888;2022-07-06T05:40:46;15.10;99.90
30475;DHT22;17264;53.340;9.888;2022-07-06T05:43:12;15.30;99.90
30475;DHT22;17264;53.340;9.888;2022-07-06T05:45:38;15.30;99.90
30475;DHT22;17264;53.340;9.888;2022-07-06T05:48:04;15.30;99.90
30475;DHT22;17264;53.340;9.888;2022-07-06T05:50:48;15.40;99.90
30475;DHT22;17264;53.340;9.888;2022-07-06T05:53:14;15.50;99.90
30475;DHT22;17264;53.340;9.888;2022-07-06T05:55:39;15.40;99.90
30475;DHT22;17264;53.340;9.888;2022-07-06T05:58:05;15.30;99.90
30475;DHT22;17264;53.340;9.888;2022-07-06T06:00:31;15.40;99.90
30475;DHT22;17264;53.340;9.888;2022-07-06T06:02:58;15.50;99.90
30475;DHT22;17264;53.340;9.888;2022-07-06T06:05:24;15.70;99.90
30475;DHT22;17264;53.340;9.888;2022-07-06T06:07:50;15.60;99.90
30475;DHT22;17264;53.340;9.888;2022-07-06T06:10:17;15.70;99.90
30475;DHT22;17264;53.340;9.888;2022-07-06T06:12:44;15.70;99.90
30475;DHT22;17264;53.340;9.888;2022-07-06T06:15:10;15.80;99.90
30475;DHT22;17264;53.340;9.888;2022-07-06T06:17:37;15.90;99.90
30475;DHT22;17264;53.340;9.888;2022-07-06T06:20:08;15.90;99.90
30475;DHT22;17264;53.340;9.888;2022-07-06T06:22:48;15.90;99.90
30475;DHT22;17264;53.340;9.888;2022-07-06T06:25:15;16.10;99.90
30475;DHT22;17264;53.340;9.888;2022-07-06T06:27:41;15.90;99.90
30475;DHT22;17264;53.340;9.888;2022-07-06T06:30:07;15.90;99.90
30475;DHT22;17264;53.340;9.888;2022-07-06T06:32:33;16.10;99.90
30475;DHT22;17264;53.340;9.888;2022-07-06T06:34:59;16.00;99.90
30475;DHT22;17264;53.340;9.888;2022-07-06T06:37:25;16.10;99.90
30475;DHT22;17264;53.340;9.888;2022-07-06T06:39:50;16.20;99.90
30475;DHT22;17264;53.340;9.888;2022-07-06T06:42:16;16.40;99.90
30475;DHT22;17264;53.340;9.888;2022-07-06T06:44:42;16.60;99.90
30475;DHT22;17264;53.340;9.888;2022-07-06T06:47:07;16.70;99.90
30475;DHT22;17264;53.340;9.888;2022-07-06T06:49:33;16.70;99.90
30475;DHT22;17264;53.340;9.888;2022-07-06T06:51:59;16.80;99.90
30475;DHT22;17264;53.340;9.888;2022-07-06T06:54:24;16.90;99.90
30475;DHT22;17264;53.340;9.888;2022-07-06T06:56:50;17.00;99.90
30475;DHT22;17264;53.340;9.888;2022-07-06T06:59:16;17.30;99.90
30475;DHT22;17264;53.340;9.888;2022-07-06T07:01:42;17.30;99.90
30475;DHT22;17264;53.340;9.888;2022-07-06T07:04:08;17.20;99.90
30475;DHT22;17264;53.340;9.888;2022-07-06T07:06:33;17.20;99.90
30475;DHT22;17264;53.340;9.888;2022-07-06T07:08:59;17.30;99.90
30475;DHT22;17264;53.340;9.888;2022-07-06T07:11:25;17.40;99.90
30475;DHT22;17264;53.340;9.888;2022-07-06T07:13:51;17.60;99.90
30475;DHT22;17264;53.340;9.888;2022-07-06T07:16:17;17.70;99.90
30475;DHT22;17264;53.340;9.888;2022-07-06T07:18:42;17.90;99.90
30475;DHT22;17264;53.340;9.888;2022-07-06T07:21:08;17.80;99.90
30475;DHT22;17264;53.340;9.888;2022-07-06T07:23:34;17.80;99.90
30475;DHT22;17264;53.340;9.888;2022-07-06T07:25:59;17.80;99.90
30475;DHT22;17264;53.340;9.888;2022-07-06T07:28:25;17.80;99.90
30475;DHT22;17264;53.340;9.888;2022-07-06T07:30:51;17.80;99.90
30475;DHT22;17264;53.340;9.888;2022-07-06T07:33:17;17.70;99.90
30475;DHT22;17264;53.340;9.888;2022-07-06T07:35:42;17.60;99.90
30475;DHT22;17264;53.340;9.888;2022-07-06T07:38:09;18.00;99.90
30475;DHT22;17264;53.340;9.888;2022-07-06T07:40:35;18.30;99.90
30475;DHT22;17264;53.340;9.888;2022-07-06T07:43:01;18.70;99.90
30475;DHT22;17264;53.340;9.888;2022-07-06T07:45:27;19.00;99.90
30475;DHT22;17264;53.340;9.888;2022-07-06T07:47:53;19.00;99.90
30475;DHT22;17264;53.340;9.888;2022-07-06T07:50:18;18.90;99.90
30475;DHT22;17264;53.340;9.888;2022-07-06T07:52:44;18.90;99.90
30475;DHT22;17264;53.340;9.888;2022-07-06T07:55:10;19.00;99.90
30475;DHT22;17264;53.340;9.888;2022-07-06T07:57:36;18.90;99.90
30475;DHT22;17264;53.340;9.888;2022-07-06T08:00:03;18.70;99.90
30475;DHT22;17264;53.340;9.888;2022-07-06T08:02:30;18.50;99.90
30475;DHT22;17264;53.340;9.888;2022-07-06T08:04:55;18.50;99.90
30475;DHT22;17264;53.340;9.888;2022-07-06T08:07:21;18.50;99.90
30475;DHT22;17264;53.340;9.888;2022-07-06T08:09:47;18.70;99.90
30475;DHT22;17264;53.340;9.888;2022-07-06T08:12:13;18.60;99.90
30475;DHT22;17264;53.340;9.888;2022-07-06T08:14:38;19.10;99.90
30475;DHT22;17264;53.340;9.888;2022-07-06T08:17:05;19.20;99.90
30475;DHT22;17264;53.340;9.888;2022-07-06T08:19:31;19.50;99.90
30475;DHT22;17264;53.340;9.888;2022-07-06T08:21:57;19.70;99.90
30475;DHT22;17264;53.340;9.888;2022-07-06T08:24:23;19.50;99.90
30475;DHT22;17264;53.340;9.888;2022-07-06T08:26:48;19.70;99.90
30475;DHT22;17264;53.340;9.888;2022-07-06T08:29:14;19.90;99.90
30475;DHT22;17264;53.340;9.888;2022-07-06T08:31:40;19.80;99.90
30475;DHT22;17264;53.340;9.888;2022-07-06T08:34:06;19.80;99.90
30475;DHT22;17264;53.340;9.888;2022-07-06T08:36:32;19.90;99.90
30475;DHT22;17264;53.340;9.888;2022-07-06T08:38:58;19.90;99.90
30475;DHT22;17264;53.340;9.888;2022-07-06T08:41:25;19.40;99.90
30475;DHT22;17264;53.340;9.888;2022-07-06T08:43:52;19.00;99.90
30475;DHT22;17264;53.340;9.888;2022-07-06T08:46:19;18.80;99.90
30475;DHT22;17264;53.340;9.888;2022-07-06T08:48:45;18.70;99.90
30475;DHT22;17264;53.340;9.888;2022-07-06T08:51:13;18.50;99.90
30475;DHT22;17264;53.340;9.888;2022-07-06T08:53:44;18.50;99.90
30475;DHT22;17264;53.340;9.888;2022-07-06T08:56:10;18.50;99.90
30475;DHT22;17264;53.340;9.888;2022-07-06T08:58:36;18.70;99.90
30475;DHT22;17264;53.340;9.888;2022-07-06T09:01:02;18.70;99.90
30475;DHT22;17264;53.340;9.888;2022-07-06T09:03:28;18.60;99.90
30475;DHT22;17264;53.340;9.888;2022-07-06T09:05:59;18.50;99.90
30475;DHT22;17264;53.340;9.888;2022-07-06T09:08:27;18.50;99.90
30475;DHT22;17264;53.340;9.888;2022-07-06T09:10:56;18.30;99.90
30475;DHT22;17264;53.340;9.888;2022-07-06T09:13:21;18.20;99.90
30475;DHT22;17264;53.340;9.888;2022-07-06T09:15:47;18.30;99.90
30475;DHT22;17264;53.340;9.888;2022-07-06T09:18:14;18.40;99.90
30475;DHT22;17264;53.340;9.888;2022-07-06T09:20:41;18.20;99.90
30475;DHT22;17264;53.340;9.888;2022-07-06T09:23:06;18.20;99.90
30475;DHT22;17264;53.340;9.888;2022-07-06T09:25:33;18.30;99.90
30475;DHT22;17264;53.340;9.888;2022-07-06T09:28:00;18.40;99.90
30475;DHT22;17264;53.340;9.888;2022-07-06T09:30:27;18.50;99.90
30475;DHT22;17264;53.340;9.888;2022-07-06T09:32:56;18.50;99.90
30475;DHT22;17264;53.340;9.888;2022-07-06T09:35:35;18.30;99.90
30475;DHT22;17264;53.340;9.888;2022-07-06T09:38:22;18.30;99.90
30475;DHT22;17264;53.340;9.888;2022-07-06T09:40:47;17.90;99.90
30475;DHT22;17264;53.340;9.888;2022-07-06T09:43:18;17.70;99.90
30475;DHT22;17264;53.340;9.888;2022-07-06T09:48:14;17.10;99.90
30475;DHT22;17264;53.340;9.888;2022-07-06T09:50:44;17.00;99.90
30475;DHT22;17264;53.340;9.888;2022-07-06T09:53:12;16.60;99.90
30475;DHT22;17264;53.340;9.888;2022-07-06T09:55:38;16.40;99.90
30475;DHT22;17264;53.340;9.888;2022-07-06T09:58:04;16.20;99.90
30475;DHT22;17264;53.340;9.888;2022-07-06T10:00:30;16.10;99.90
30475;DHT22;17264;53.340;9.888;2022-07-06T10:02:56;15.90;99.90
30475;DHT22;17264;53.340;9.888;2022-07-06T10:05:23;15.80;99.90
30475;DHT22;17264;53.340;9.888;2022-07-06T10:07:57;15.60;99.90
30475;DHT22;17264;53.340;9.888;2022-07-06T10:10:28;15.70;99.90
30475;DHT22;17264;53.340;9.888;2022-07-06T10:12:59;15.90;99.90
30475;DHT22;17264;53.340;9.888;2022-07-06T10:15:27;15.90;99.90
30475;DHT22;17264;53.340;9.888;2022-07-06T10:17:54;16.10;99.90
30475;DHT22;17264;53.340;9.888;2022-07-06T10:20:21;16.20;99.90
30475;DHT22;17264;53.340;9.888;2022-07-06T10:22:48;16.20;99.90
30475;DHT22;17264;53.340;9.888;2022-07-06T10:25:18;16.20;99.90
30475;DHT22;17264;53.340;9.888;2022-07-06T10:27:47;16.50;99.90
30475;DHT22;17264;53.340;9.888;2022-07-06T10:30:16;16.70;99.90
30475;DHT22;17264;53.340;9.888;2022-07-06T10:32:44;17.20;99.90
30475;DHT22;17264;53.340;9.888;2022-07-06T10:35:12;17.40;99.90
30475;DHT22;17264;53.340;9.888;2022-07-06T10:37:38;17.90;99.90
30475;DHT22;17264;53.340;9.888;2022-07-06T10:40:05;18.30;99.90
30475;DHT22;17264;53.340;9.888;2022-07-06T10:42:57;18.70;99.90
30475;DHT22;17264;53.340;9.888;2022-07-06T10:50:46;19.70;99.90
30475;DHT22;17264;53.340;9.888;2022-07-06T10:53:26;19.90;99.90
30475;DHT22;17264;53.340;9.888;2022-07-06T10:55:54;20.20;99.90
30475;DHT22;17264;53.340;9.888;2022-07-06T11:01:15;21.10;99.90
30475;DHT22;17264;53.340;9.888;2022-07-06T11:08:50;21.60;99.90
30475;DHT22;17264;53.340;9.888;2022-07-06T11:13:56;21.20;99.90
30475;DHT22;17264;53.340;9.888;2022-07-06T11:16:25;20.70;99.90
30475;DHT22;17264;53.340;9.888;2022-07-06T11:19:30;20.40;99.90
30475;DHT22;17264;53.340;9.888;2022-07-06T11:22:10;19.40;99.90
30475;DHT22;17264;53.340;9.888;2022-07-06T11:24:38;19.00;99.90
30475;DHT22;17264;53.340;9.888;2022-07-06T11:27:05;18.90;99.90
30475;DHT22;17264;53.340;9.888;2022-07-06T11:29:33;18.60;99.90
30475;DHT22;17264;53.340;9.888;2022-07-06T11:32:06;18.30;99.90
30475;DHT22;17264;53.340;9.888;2022-07-06T11:34:37;18.10;99.90
30475;DHT22;17264;53.340;9.888;2022-07-06T11:37:07;18.10;99.90
30475;DHT22;17264;53.340;9.888;2022-07-06T11:39:35;18.10;99.90
30475;DHT22;17264;53.340;9.888;2022-07-06T11:42:04;18.20;99.90
30475;DHT22;17264;53.340;9.888;2022-07-06T11:44:30;18.40;99.90
30475;DHT22;17264;53.340;9.888;2022-07-06T11:47:01;18.50;99.90
30475;DHT22;17264;53.340;9.888;2022-07-06T11:49:29;18.80;99.90
30475;DHT22;17264;53.340;9.888;2022-07-06T11:51:56;19.40;99.90
30475;DHT22;17264;53.340;9.888;2022-07-06T11:54:23;19.80;99.90
30475;DHT22;17264;53.340;9.888;2022-07-06T11:56:58;20.40;99.90
30475;DHT22;17264;53.340;9.888;2022-07-06T11:59:26;21.90;99.90
30475;DHT22;17264;53.340;9.888;2022-07-06T12:02:27;24.80;99.90
30475;DHT22;17264;53.340;9.888;2022-07-06T12:04:53;24.90;99.90
30475;DHT22;17264;53.340;9.888;2022-07-06T12:07:18;24.30;99.90
30475;DHT22;17264;53.340;9.888;2022-07-06T12:09:46;24.00;99.90
30475;DHT22;17264;53.340;9.888;2022-07-06T12:12:13;23.70;99.90
30475;DHT22;17264;53.340;9.888;2022-07-06T12:14:41;23.60;99.90
30475;DHT22;17264;53.340;9.888;2022-07-06T12:17:09;23.30;99.90
30475;DHT22;17264;53.340;9.888;2022-07-06T12:19:36;24.60;99.90
30475;DHT22;17264;53.340;9.888;2022-07-06T12:22:03;24.10;99.90
30475;DHT22;17264;53.340;9.888;2022-07-06T12:24:31;26.30;99.90
30475;DHT22;17264;53.340;9.888;2022-07-06T12:26:58;26.70;99.90
30475;DHT22;17264;53.340;9.888;2022-07-06T12:29:27;25.40;99.90
30475;DHT22;17264;53.340;9.888;2022-07-06T12:31:55;24.50;99.90
30475;DHT22;17264;53.340;9.888;2022-07-06T12:34:23;23.70;99.90
30475;DHT22;17264;53.340;9.888;2022-07-06T12:36:55;23.60;99.90
30475;DHT22;17264;53.340;9.888;2022-07-06T12:39:22;23.50;99.90
30475;DHT22;17264;53.340;9.888;2022-07-06T12:42:02;24.40;99.90
30475;DHT22;17264;53.340;9.888;2022-07-06T12:44:30;24.60;99.90
30475;DHT22;17264;53.340;9.888;2022-07-06T12:47:09;23.40;99.90
30475;DHT22;17264;53.340;9.888;2022-07-06T12:49:37;22.90;99.90
30475;DHT22;17264;53.340;9.888;2022-07-06T12:54:40;24.00;99.90
30475;DHT22;17264;53.340;9.888;2022-07-06T12:59:46;24.70;99.90
30475;DHT22;17264;53.340;9.888;2022-07-06T13:02:33;23.70;99.90
30475;DHT22;17264;53.340;9.888;2022-07-06T13:05:08;22.40;99.90
30475;DHT22;17264;53.340;9.888;2022-07-06T13:07:36;22.00;99.90
30475;DHT22;17264;53.340;9.888;2022-07-06T13:10:07;21.90;99.90
30475;DHT22;17264;53.340;9.888;2022-07-06T13:12:34;22.20;99.90
30475;DHT22;17264;53.340;9.888;2022-07-06T13:15:00;23.60;99.90
30475;DHT22;17264;53.340;9.888;2022-07-06T13:17:25;26.50;99.90
30475;DHT22;17264;53.340;9.888;2022-07-06T13:19:51;27.70;99.90
30475;DHT22;17264;53.340;9.888;2022-07-06T13:22:17;29.00;99.90
30475;DHT22;17264;53.340;9.888;2022-07-06T13:24:43;29.30;98.50
30475;DHT22;17264;53.340;9.888;2022-07-06T13:27:09;28.70;98.70
30475;DHT22;17264;53.340;9.888;2022-07-06T13:29:35;26.80;99.90
30475;DHT22;17264;53.340;9.888;2022-07-06T13:32:01;27.00;99.90
30475;DHT22;17264;53.340;9.888;2022-07-06T13:34:27;25.70;99.90
30475;DHT22;17264;53.340;9.888;2022-07-06T13:36:53;24.20;99.90
30475;DHT22;17264;53.340;9.888;2022-07-06T13:39:19;23.30;99.90
30475;DHT22;17264;53.340;9.888;2022-07-06T13:41:45;22.90;99.90
30475;DHT22;17264;53.340;9.888;2022-07-06T13:44:11;22.80;99.90
30475;DHT22;17264;53.340;9.888;2022-07-06T13:46:38;24.90;99.90
30475;DHT22;17264;53.340;9.888;2022-07-06T13:49:13;27.20;99.90
30475;DHT22;17264;53.340;9.888;2022-07-06T13:51:39;27.10;99.20
30475;DHT22;17264;53.340;9.888;2022-07-06T13:54:05;25.80;99.90
30475;DHT22;17264;53.340;9.888;2022-07-06T13:56:31;24.60;99.90
30475;DHT22;17264;53.340;9.888;2022-07-06T13:58:57;24.30;99.90
30475;DHT22;17264;53.340;9.888;2022-07-06T14:01:23;23.70;99.90
30475;DHT22;17264;53.340;9.888;2022-07-06T14:03:49;23.00;99.90
30475;DHT22;17264;53.340;9.888;2022-07-06T14:06:15;22.70;99.90
30475;DHT22;17264;53.340;9.888;2022-07-06T14:08:41;21.90;99.90
30475;DHT22;17264;53.340;9.888;2022-07-06T14:11:08;21.40;99.90
30475;DHT22;17264;53.340;9.888;2022-07-06T14:13:35;21.20;99.90
30475;DHT22;17264;53.340;9.888;2022-07-06T14:16:01;21.30;99.90
30475;DHT22;17264;53.340;9.888;2022-07-06T14:18:28;21.30;99.90
30475;DHT22;17264;53.340;9.888;2022-07-06T14:20:54;21.60;99.90
30475;DHT22;17264;53.340;9.888;2022-07-06T14:23:20;22.00;99.90
30475;DHT22;17264;53.340;9.888;2022-07-06T14:25:47;23.60;99.90
30475;DHT22;17264;53.340;9.888;2022-07-06T14:28:13;26.30;99.90
30475;DHT22;17264;53.340;9.888;2022-07-06T14:30:40;27.20;99.90
30475;DHT22;17264;53.340;9.888;2022-07-06T14:33:08;29.00;99.60
30475;DHT22;17264;53.340;9.888;2022-07-06T14:38:01;29.10;95.20
30475;DHT22;17264;53.340;9.888;2022-07-06T14:40:27;27.30;96.80
30475;DHT22;17264;53.340;9.888;2022-07-06T14:42:53;25.70;99.10
30475;DHT22;17264;53.340;9.888;2022-07-06T14:45:19;24.70;99.90
30475;DHT22;17264;53.340;9.888;2022-07-06T14:47:45;24.70;99.90
30475;DHT22;17264;53.340;9.888;2022-07-06T14:50:10;25.50;99.90
30475;DHT22;17264;53.340;9.888;2022-07-06T14:52:36;27.80;98.20
30475;DHT22;17264;53.340;9.888;2022-07-06T14:55:02;28.00;97.80
30475;DHT22;17264;53.340;9.888;2022-07-06T14:57:28;27.20;98.00
30475;DHT22;17264;53.340;9.888;2022-07-06T14:59:54;26.40;98.40
30475;DHT22;17264;53.340;9.888;2022-07-06T15:02:20;26.70;98.60
30475;DHT22;17264;53.340;9.888;2022-07-06T15:04:45;27.40;97.20
30475;DHT22;17264;53.340;9.888;2022-07-06T15:07:11;28.00;96.40
30475;DHT22;17264;53.340;9.888;2022-07-06T15:09:37;29.30;94.60
30475;DHT22;17264;53.340;9.888;2022-07-06T15:12:04;28.60;94.00
30475;DHT22;17264;53.340;9.888;2022-07-06T15:14:30;26.50;95.60
30475;DHT22;17264;53.340;9.888;2022-07-06T15:16:55;24.90;97.70
30475;DHT22;17264;53.340;9.888;2022-07-06T15:19:21;24.60;99.20
30475;DHT22;17264;53.340;9.888;2022-07-06T15:21:47;23.30;99.90
30475;DHT22;17264;53.340;9.888;2022-07-06T15:24:13;23.10;99.90
30475;DHT22;17264;53.340;9.888;2022-07-06T15:26:39;22.60;99.90
30475;DHT22;17264;53.340;9.888;2022-07-06T15:29:04;22.40;99.90
30475;DHT22;17264;53.340;9.888;2022-07-06T15:31:30;22.30;99.90
30475;DHT22;17264;53.340;9.888;2022-07-06T15:33:57;22.20;99.90
30475;DHT22;17264;53.340;9.888;2022-07-06T15:36:22;22.20;99.90
30475;DHT22;17264;53.340;9.888;2022-07-06T15:38:48;22.50;99.90
30475;DHT22;17264;53.340;9.888;2022-07-06T15:41:14;23.80;99.90
30475;DHT22;17264;53.340;9.888;2022-07-06T15:43:43;26.20;99.40
30475;DHT22;17264;53.340;9.888;2022-07-06T15:46:08;28.00;96.90
30475;DHT22;17264;53.340;9.888;2022-07-06T15:48:36;28.50;95.50
30475;DHT22;17264;53.340;9.888;2022-07-06T15:51:02;27.80;94.60
30475;DHT22;17264;53.340;9.888;2022-07-06T15:53:28;27.30;95.50
30475;DHT22;17264;53.340;9.888;2022-07-06T15:55:56;28.20;95.40
30475;DHT22;17264;53.340;9.888;2022-07-06T15:58:22;26.30;96.20